Temp: 2.6°C   Baro: 999.8mb
  Wind: 4.0mph   Dir: WNW (291°)
  Rain: 0.0mm (0.0mm/hr)
  Solar: 0W/m2  Hum: 83%
 
Bath Spa Weather Historical Data
Daily Summary for October 25, 2019 Units:  English    Metric   Both
Next Day »
Daily Weekly Monthly Yearly Custom
  High: Low: Average:
Temperature: 62.1 °F 50.2 °F 56.1 °F
Dew Point: 57.6 °F 46.8 °F 52.7 °F
Humidity: 92% 84% 88%
Wind Speed: 30mph 0mph 6.5mph
Wind Gust: 32mph - -
Wind direction- - SSW
Pressure: 29.9 in 29.7 in -
Precipitation: 0.07 in    
Historical Graphs
 
 
Tabular Data for October 25, 2019
Time Temperature Dew Point Pressure Wind direction Wind Speed Wind Gust Humidity Rainfall Rate (Hourly) solar
00:00 50.5 °F 47.1 °F 29.8 in Calm     88% 0 in 0.00 W/m2
00:05 50.5 °F 47.1 °F 29.8 in Calm     88% 0 in 0.00 W/m2
00:10 50.5 °F 47.1 °F 29.8 in Calm     88% 0 in 0.00 W/m2
00:15 50.5 °F 47.5 °F 29.8 in Calm     89% 0 in 0.00 W/m2
00:20 50.5 °F 47.5 °F 29.8 in Calm     89% 0 in 0.00 W/m2
00:25 50.5 °F 47.5 °F 29.8 in Calm     89% 0 in 0.00 W/m2
00:30 50.5 °F 47.5 °F 29.8 in Calm     89% 0 in 0.00 W/m2
00:35 50.5 °F 47.5 °F 29.8 in Calm   1 mph 89% 0 in 0.00 W/m2
00:40 50.5 °F 47.5 °F 29.8 in Calm   1 mph 89% 0 in 0.00 W/m2
00:45 50.5 °F 47.5 °F 29.8 in SW 0.9 mph 1 mph 89% 0 in 0.00 W/m2
00:50 50.7 °F 47.7 °F 29.8 in SW 2 mph 3 mph 89% 0 in 0.00 W/m2
00:55 50.7 °F 47.7 °F 29.8 in SW 0.9 mph 3 mph 89% 0 in 0.00 W/m2
01:00 50.7 °F 47.7 °F 29.8 in Calm   2 mph 89% 0 in 0.00 W/m2
01:05 50.9 °F 47.8 °F 29.8 in Calm   2 mph 89% 0 in 0.00 W/m2
01:10 50.7 °F 47.7 °F 29.8 in Calm   1 mph 89% 0 in 0.00 W/m2
01:15 50.7 °F 47.7 °F 29.8 in SW 0.9 mph 4 mph 89% 0 in 0.00 W/m2
01:20 50.9 °F 47.8 °F 29.8 in Calm   2 mph 89% 0 in 0.00 W/m2
01:25 50.9 °F 47.8 °F 29.8 in Calm   3 mph 89% 0 in 0.00 W/m2
01:30 50.7 °F 47.7 °F 29.9 in SW 0.9 mph 2 mph 89% 0 in 0.00 W/m2
01:35 50.7 °F 47.7 °F 29.9 in Calm   3 mph 89% 0 in 0.00 W/m2
01:40 50.9 °F 48 °F 29.9 in SW 2.9 mph 5 mph 90% 0 in 0.00 W/m2
01:45 51.1 °F 48 °F 29.9 in SW 2 mph 7 mph 89% 0 in 0.00 W/m2
01:50 51.1 °F 48 °F 29.9 in WSW 4 mph 7 mph 89% 0 in 0.00 W/m2
01:55 51.3 °F 48.2 °F 29.9 in WSW 2 mph 7 mph 89% 0 in 0.00 W/m2
02:00 51.1 °F 48 °F 29.9 in WSW 2.9 mph 5 mph 89% 0 in 0.00 W/m2
02:05 51.3 °F 48.2 °F 29.9 in WSW 2.9 mph 9 mph 89% 0 in 0.00 W/m2
02:10 51.3 °F 48.2 °F 29.9 in WSW 4 mph 8 mph 89% 0 in 0.00 W/m2
02:15 51.3 °F 48.2 °F 29.9 in SW 4.9 mph 6 mph 89% 0 in 0.00 W/m2
02:20 51.3 °F 48.2 °F 29.9 in WSW 6 mph 12 mph 89% 0 in 0.00 W/m2
02:25 51.4 °F 48.4 °F 29.9 in WSW 6 mph 8 mph 89% 0 in 0.00 W/m2
02:30 51.4 °F 48.4 °F 29.9 in SW 8.1 mph 9 mph 89% 0 in 0.00 W/m2
02:35 51.4 °F 48.4 °F 29.9 in SW 2 mph 5 mph 89% 0 in 0.00 W/m2
02:40 51.3 °F 48.2 °F 29.9 in SW 6.9 mph 7 mph 89% 0 in 0.00 W/m2
02:45 51.3 °F 48.2 °F 29.9 in SW 2 mph 4 mph 89% 0 in 0.00 W/m2
02:50 51.3 °F 48.2 °F 29.9 in SW 0.9 mph 4 mph 89% 0 in 0.00 W/m2
02:55 51.1 °F 48 °F 29.9 in SW 0.9 mph 1 mph 89% 0 in 0.00 W/m2
03:00 51.1 °F 48 °F 29.9 in Calm   4 mph 89% 0 in 0.00 W/m2
03:05 51.1 °F 48 °F 29.9 in Calm   3 mph 89% 0 in 0.00 W/m2
03:10 50.9 °F 47.8 °F 29.9 in SW 0.9 mph 4 mph 89% 0 in 0.00 W/m2
03:15 50.7 °F 47.7 °F 29.9 in SW 4 mph 5 mph 89% 0 in 0.00 W/m2
03:20 50.7 °F 47.3 °F 29.9 in Calm   3 mph 88% 0 in 0.00 W/m2
03:25 50.5 °F 47.1 °F 29.9 in Calm     88% 0 in 0.00 W/m2
03:30 50.4 °F 46.9 °F 29.9 in SW 4 mph 4 mph 88% 0 in 0.00 W/m2
03:35 50.4 °F 46.9 °F 29.9 in Calm     88% 0 in 0.00 W/m2
03:40 50.2 °F 46.8 °F 29.9 in SW 0.9 mph 4 mph 88% 0 in 0.00 W/m2
03:45 50.4 °F 46.9 °F 29.9 in SW 0.9 mph 5 mph 88% 0 in 0.00 W/m2
03:50 50.4 °F 46.9 °F 29.9 in SW 0.9 mph 6 mph 88% 0 in 0.00 W/m2
03:55 50.5 °F 47.1 °F 29.9 in Calm   5 mph 88% 0 in 0.00 W/m2
04:00 50.4 °F 46.9 °F 29.9 in Calm   2 mph 88% 0 in 0.00 W/m2
04:05 50.4 °F 46.9 °F 29.9 in SW 2 mph 4 mph 88% 0 in 0.00 W/m2
04:10 50.4 °F 46.9 °F 29.9 in SW 2.9 mph 6 mph 88% 0 in 0.00 W/m2
04:15 50.5 °F 47.1 °F 29.9 in SW 0.9 mph 3 mph 88% 0 in 0.00 W/m2
04:20 50.5 °F 47.1 °F 29.9 in Calm   2 mph 88% 0 in 0.00 W/m2
04:25 50.4 °F 46.9 °F 29.9 in Calm   2 mph 88% 0 in 0.00 W/m2
04:30 50.4 °F 46.9 °F 29.9 in Calm   2 mph 88% 0 in 0.00 W/m2
04:35 50.2 °F 46.8 °F 29.9 in Calm   4 mph 88% 0 in 0.00 W/m2
04:40 50.2 °F 46.8 °F 29.9 in Calm   1 mph 88% 0 in 0.00 W/m2
04:45 50.2 °F 46.8 °F 29.9 in SW 2 mph 3 mph 88% 0 in 0.00 W/m2
04:50 50.2 °F 46.8 °F 29.9 in SW 0.9 mph 2 mph 88% 0 in 0.00 W/m2
04:55 50.2 °F 46.8 °F 29.9 in Calm   1 mph 88% 0 in 0.00 W/m2
05:00 50.2 °F 46.8 °F 29.9 in Calm   3 mph 88% 0 in 0.00 W/m2
05:05 50.4 °F 46.9 °F 29.9 in WSW 2 mph 4 mph 88% 0 in 0.00 W/m2
05:10 50.4 °F 46.9 °F 29.9 in Calm   3 mph 88% 0 in 0.00 W/m2
05:15 50.4 °F 46.9 °F 29.9 in WSW 2 mph 3 mph 88% 0 in 0.00 W/m2
05:20 50.5 °F 47.1 °F 29.9 in SW 2 mph 10 mph 88% 0 in 0.00 W/m2
05:25 50.5 °F 47.1 °F 29.9 in SW 2.9 mph 3 mph 88% 0 in 0.00 W/m2
05:30 50.7 °F 47.3 °F 29.9 in SW 2 mph 6 mph 88% 0 in 0.00 W/m2
05:35 50.7 °F 47.3 °F 29.9 in SW 4.9 mph 5 mph 88% 0 in 0.00 W/m2
05:40 50.7 °F 47.3 °F 29.9 in SW 2.9 mph 3 mph 88% 0 in 0.00 W/m2
05:45 50.9 °F 47.5 °F 29.9 in SW 2.9 mph 4 mph 88% 0 in 0.00 W/m2
05:50 50.9 °F 47.5 °F 29.9 in Calm   3 mph 88% 0 in 0.00 W/m2
05:55 50.7 °F 47.3 °F 29.9 in Calm     88% 0 in 0.00 W/m2
06:00 50.7 °F 47.3 °F 29.9 in Calm   3 mph 88% 0 in 0.00 W/m2
06:05 50.7 °F 47.3 °F 29.9 in SW 2 mph 2 mph 88% 0 in 0.00 W/m2
06:10 50.7 °F 47.3 °F 29.9 in Calm   2 mph 88% 0 in 0.00 W/m2
06:15 50.5 °F 47.5 °F 29.9 in SW 0.9 mph 1 mph 89% 0 in 0.00 W/m2
06:20 50.5 °F 47.5 °F 29.9 in Calm   2 mph 89% 0 in 0.00 W/m2
06:25 50.9 °F 47.8 °F 29.9 in Calm   3 mph 89% 0 in 0.00 W/m2
06:30 51.1 °F 48 °F 29.9 in Calm   6 mph 89% 0 in 0.00 W/m2
06:35 51.1 °F 48 °F 29.9 in SW 0.9 mph 5 mph 89% 0 in 0.00 W/m2
06:40 51.3 °F 48.2 °F 29.9 in SW 2.9 mph 6 mph 89% 0 in 0.00 W/m2
06:45 51.4 °F 48.4 °F 29.9 in SW 2.9 mph 7 mph 89% 0 in 0.00 W/m2
06:50 51.6 °F 48.6 °F 29.9 in SW 4.9 mph 5 mph 89% 0 in 0.00 W/m2
06:55 51.6 °F 48.2 °F 29.9 in WSW 2 mph 6 mph 88% 0 in 0.00 W/m2
07:00 52 °F 48.6 °F 29.9 in WSW 2 mph 4 mph 88% 0 in 0.00 W/m2
07:05 52 °F 48.6 °F 29.9 in Calm   6 mph 88% 0 in 0.00 W/m2
07:10 52 °F 48.6 °F 29.9 in Calm   2 mph 88% 0 in 0.00 W/m2
07:15 52 °F 48.6 °F 29.9 in WSW 2.9 mph 3 mph 88% 0 in 0.00 W/m2
07:20 52 °F 48.6 °F 29.9 in WSW 2 mph 6 mph 88% 0 in 0.00 W/m2
07:25 52.2 °F 48.7 °F 29.9 in SW 4 mph 10 mph 88% 0 in 0.00 W/m2
07:30 52.5 °F 49.1 °F 29.9 in SW 2 mph 6 mph 88% 0 in 0.00 W/m2
07:35 52.7 °F 49.3 °F 29.9 in SW 4.9 mph 8 mph 88% 0 in 0.00 W/m2
07:40 52.7 °F 49.3 °F 29.9 in SW 2 mph 4 mph 88% 0 in 0.00 W/m2
07:45 52.9 °F 49.5 °F 29.9 in SW 2.9 mph 6 mph 88% 0 in 0.00 W/m2
07:50 52.9 °F 49.5 °F 29.9 in SW 2.9 mph 5 mph 88% 0 in 0.00 W/m2
07:55 53.2 °F 49.8 °F 29.9 in Calm   5 mph 88% 0 in 0.00 W/m2
08:00 53.6 °F 50.2 °F 29.9 in SW 2.9 mph 4 mph 88% 0 in 5.00 W/m2
08:05 53.4 °F 50 °F 29.9 in Calm   2 mph 88% 0 in 5.00 W/m2
08:10 53.4 °F 50 °F 29.9 in SW 2.9 mph 3 mph 88% 0 in 7.00 W/m2
08:15 53.2 °F 49.8 °F 29.9 in SW 2 mph 3 mph 88% 0 in 7.00 W/m2
08:20 53.2 °F 49.8 °F 29.9 in SW 0.9 mph 4 mph 88% 0 in 11.00 W/m2
08:25 53.2 °F 49.8 °F 29.9 in SW 2 mph 3 mph 88% 0 in 12.00 W/m2
08:30 53.2 °F 49.8 °F 29.9 in Calm     88% 0 in 12.00 W/m2
08:35 53.4 °F 50 °F 29.9 in Calm     88% 0 in 12.00 W/m2
08:40 53.4 °F 50 °F 29.9 in Calm     88% 0 in 19.00 W/m2
08:45 53.4 °F 50 °F 29.9 in Calm   1 mph 88% 0 in 21.00 W/m2
08:50 53.4 °F 50 °F 29.9 in Calm   4 mph 88% 0.01 in 16.00 W/m2
08:55 53.4 °F 50.2 °F 29.9 in Calm   4 mph 89% 0.01 in 19.00 W/m2
09:00 53.4 °F 50.2 °F 29.9 in SW 2 mph 5 mph 89% 0.01 in 19.00 W/m2
09:05 53.2 °F 50 °F 29.9 in Calm     89% 0.01 in 23.00 W/m2
09:10 53.4 °F 50.2 °F 29.9 in Calm     89% 0.01 in 26.00 W/m2
09:15 53.2 °F 50 °F 29.9 in Calm     89% 0.01 in 49.00 W/m2
09:20 53.4 °F 50.2 °F 29.9 in Calm     89% 0.01 in 42.00 W/m2
09:25 53.4 °F 50.2 °F 29.9 in SSW 2.9 mph 4 mph 89% 0.01 in 37.00 W/m2
09:30 53.2 °F 50.4 °F 29.9 in SSW 2 mph 3 mph 90% 0.01 in 40.00 W/m2
09:35 53.2 °F 50.4 °F 29.9 in SSW 6 mph 6 mph 90% 0.01 in 35.00 W/m2
09:40 53.1 °F 50.2 °F 29.9 in SSW 0.9 mph 4 mph 90% 0.01 in 33.00 W/m2
09:45 53.1 °F 50.2 °F 29.9 in South 2 mph 6 mph 90% 0.01 in 44.00 W/m2
09:50 53.1 °F 50.2 °F 29.9 in SSE 2 mph 8 mph 90% 0 in 42.00 W/m2
09:55 53.2 °F 50.7 °F 29.9 in SSE 4 mph 8 mph 91% 0 in 44.00 W/m2
10:00 53.2 °F 50.7 °F 29.9 in SSE 2.9 mph 8 mph 91% 0 in 40.00 W/m2
10:05 53.4 °F 50.5 °F 29.9 in SSE 4 mph 7 mph 90% 0 in 46.00 W/m2
10:10 53.4 °F 50.5 °F 29.9 in SSE 4.9 mph 5 mph 90% 0 in 63.00 W/m2
10:15 53.8 °F 50.9 °F 29.9 in SSE 4 mph 7 mph 90% 0 in 53.00 W/m2
10:20 53.8 °F 50.9 °F 29.9 in SSE 2.9 mph 5 mph 90% 0 in 74.00 W/m2
10:25 54 °F 51.1 °F 29.9 in SSE 4 mph 8 mph 90% 0 in 69.00 W/m2
10:30 54.1 °F 51.3 °F 29.8 in SSE 4.9 mph 8 mph 90% 0 in 86.00 W/m2
10:35 54.3 °F 51.4 °F 29.8 in SSE 2.9 mph 7 mph 90% 0 in 91.00 W/m2
10:40 54.7 °F 51.8 °F 29.8 in South 6 mph 8 mph 90% 0 in 76.00 W/m2
10:45 54.7 °F 51.4 °F 29.8 in South 2.9 mph 8 mph 89% 0 in 65.00 W/m2
10:50 54.9 °F 51.6 °F 29.8 in South 2.9 mph 8 mph 89% 0 in 70.00 W/m2
10:55 54.9 °F 51.6 °F 29.8 in SSE 6.9 mph 9 mph 89% 0 in 60.00 W/m2
11:00 55 °F 51.8 °F 29.8 in SSE 6 mph 8 mph 89% 0 in 53.00 W/m2
11:05 55.2 °F 51.8 °F 29.8 in South 4.9 mph 10 mph 88% 0.01 in 53.00 W/m2
11:10 55.4 °F 52 °F 29.8 in SSE 4 mph 11 mph 88% 0.01 in 63.00 W/m2
11:15 55.6 °F 52.2 °F 29.8 in South 6.9 mph 11 mph 88% 0.01 in 72.00 W/m2
11:20 55.8 °F 52 °F 29.8 in SSE 6 mph 8 mph 87% 0.01 in 60.00 W/m2
11:25 55.9 °F 52.2 °F 29.8 in SSE 8.9 mph 11 mph 87% 0.01 in 49.00 W/m2
11:30 55.9 °F 52.2 °F 29.8 in SSE 6 mph 9 mph 87% 0.01 in 56.00 W/m2
11:35 56.1 °F 52.3 °F 29.8 in SSE 13 mph 13 mph 87% 0.01 in 65.00 W/m2
11:40 56.3 °F 52.5 °F 29.8 in SSE 4 mph 9 mph 87% 0.01 in 62.00 W/m2
11:45 56.5 °F 52.7 °F 29.8 in South 8.1 mph 13 mph 87% 0.01 in 100.00 W/m2
11:50 56.7 °F 52.9 °F 29.8 in SSE 4.9 mph 11 mph 87% 0.01 in 63.00 W/m2
11:55 56.8 °F 52.7 °F 29.8 in South 16.1 mph 16 mph 86% 0.01 in 69.00 W/m2
12:00 56.8 °F 52.7 °F 29.8 in SE 6 mph 12 mph 86% 0.01 in 70.00 W/m2
12:05 56.7 °F 52.9 °F 29.8 in SSW 4 mph 17 mph 87% 0 in 39.00 W/m2
12:10 56.5 °F 52.9 °F 29.8 in WSW 6.9 mph 14 mph 88% 0 in 67.00 W/m2
12:15 56.1 °F 52.7 °F 29.8 in South 6.9 mph 14 mph 88% 0 in 44.00 W/m2
12:20 55.9 °F 52.7 °F 29.8 in South 6.9 mph 15 mph 89% 0 in 60.00 W/m2
12:25 55.9 °F 52.7 °F 29.8 in SW 4 mph 8 mph 89% 0 in 70.00 W/m2
12:30 55.9 °F 53.1 °F 29.8 in SSW 8.1 mph 14 mph 90% 0 in 72.00 W/m2
12:35 55.9 °F 53.1 °F 29.8 in South 8.1 mph 16 mph 90% 0 in 53.00 W/m2
12:40 56.1 °F 53.6 °F 29.8 in SSW 6 mph 15 mph 91% 0 in 56.00 W/m2
12:45 56.5 °F 54 °F 29.8 in South 8.9 mph 14 mph 91% 0 in 56.00 W/m2
12:50 56.7 °F 54.1 °F 29.8 in SSW 6 mph 13 mph 91% 0 in 88.00 W/m2
12:55 57 °F 54.5 °F 29.8 in SSW 10.1 mph 12 mph 91% 0 in 62.00 W/m2
13:00 57.6 °F 55 °F 29.8 in SSW 2.9 mph 14 mph 91% 0 in 51.00 W/m2
13:05 57.9 °F 55.6 °F 29.8 in SSW 4 mph 11 mph 92% 0 in 46.00 W/m2
13:10 58.5 °F 55.8 °F 29.8 in SSW 11 mph 20 mph 91% 0 in 76.00 W/m2
13:15 58.8 °F 56.1 °F 29.8 in SSW 6 mph 14 mph 91% 0 in 102.00 W/m2
13:20 59.2 °F 56.5 °F 29.8 in WSW 6.9 mph 14 mph 91% 0 in 72.00 W/m2
13:25 59.4 °F 56.7 °F 29.8 in SW 14.1 mph 22 mph 91% 0 in 83.00 W/m2
13:30 59.7 °F 56.8 °F 29.8 in South 8.1 mph 17 mph 90% 0 in 105.00 W/m2
13:35 59.9 °F 56.7 °F 29.8 in SW 17 mph 21 mph 89% 0 in 111.00 W/m2
13:40 60.1 °F 56.5 °F 29.7 in WSW 8.1 mph 19 mph 88% 0 in 114.00 W/m2
13:45 60.3 °F 56.7 °F 29.7 in SW 6.9 mph 15 mph 88% 0 in 104.00 W/m2
13:50 60.4 °F 56.5 °F 29.7 in SSW 6 mph 22 mph 87% 0 in 118.00 W/m2
13:55 60.4 °F 56.5 °F 29.7 in SW 16.1 mph 22 mph 87% 0 in 114.00 W/m2
14:00 60.6 °F 56.7 °F 29.7 in SSW 15 mph 23 mph 87% 0 in 142.00 W/m2
14:05 60.8 °F 56.7 °F 29.7 in SSW 8.9 mph 22 mph 86% 0 in 155.00 W/m2
14:10 61 °F 56.8 °F 29.7 in SSW 6.9 mph 11 mph 86% 0 in 162.00 W/m2
14:15 61 °F 56.8 °F 29.7 in SSW 4 mph 15 mph 86% 0 in 155.00 W/m2
14:20 61.2 °F 57 °F 29.7 in South 6.9 mph 19 mph 86% 0 in 151.00 W/m2
14:25 61.3 °F 57.2 °F 29.7 in SSW 12.1 mph 21 mph 86% 0 in 244.00 W/m2
14:30 61.7 °F 57.2 °F 29.7 in SSW 8.9 mph 18 mph 85% 0 in 186.00 W/m2
14:35 61.9 °F 57.4 °F 29.7 in South 6.9 mph 13 mph 85% 0 in 202.00 W/m2
14:40 61.9 °F 57 °F 29.7 in SW 10.1 mph 17 mph 84% 0 in 141.00 W/m2
14:45 61.9 °F 57 °F 29.7 in South 11 mph 15 mph 84% 0 in 158.00 W/m2
14:50 61.9 °F 57 °F 29.7 in South 6 mph 17 mph 84% 0 in 183.00 W/m2
14:55 62.1 °F 57.2 °F 29.7 in SSW 11 mph 19 mph 84% 0 in 100.00 W/m2
15:00 62.1 °F 57.2 °F 29.7 in SW 10.1 mph 17 mph 84% 0 in 118.00 W/m2
15:05 61.9 °F 57 °F 29.7 in SSW 10.1 mph 16 mph 84% 0 in 62.00 W/m2
15:10 61.9 °F 57 °F 29.7 in SW 17 mph 18 mph 84% 0 in 32.00 W/m2
15:15 61.9 °F 57 °F 29.7 in SW 8.1 mph 19 mph 84% 0 in 40.00 W/m2
15:20 61.7 °F 56.8 °F 29.7 in SSW 2 mph 11 mph 84% 0 in 35.00 W/m2
15:25 61.7 °F 56.8 °F 29.7 in SSW 11 mph 12 mph 84% 0 in 49.00 W/m2
15:30 61.9 °F 57.4 °F 29.7 in SSW 6.9 mph 19 mph 85% 0 in 25.00 W/m2
15:35 61.7 °F 57.2 °F 29.7 in SSW 6.9 mph 15 mph 85% 0 in 47.00 W/m2
15:40 61.7 °F 57.2 °F 29.7 in SW 8.1 mph 18 mph 85% 0 in 60.00 W/m2
15:45 61.5 °F 57 °F 29.7 in SSW 4 mph 11 mph 85% 0 in 33.00 W/m2
15:50 61.5 °F 57 °F 29.7 in SSW 17.9 mph 22 mph 85% 0 in 42.00 W/m2
15:55 61.5 °F 57 °F 29.7 in SW 10.1 mph 22 mph 85% 0 in 39.00 W/m2
16:00 61.5 °F 57 °F 29.7 in SW 15 mph 16 mph 85% 0 in 44.00 W/m2
16:05 61.5 °F 57 °F 29.7 in SW 12.1 mph 16 mph 85% 0 in 28.00 W/m2
16:10 61.5 °F 57 °F 29.7 in South 6 mph 15 mph 85% 0 in 18.00 W/m2
16:15 61.3 °F 56.8 °F 29.7 in SW 8.1 mph 19 mph 85% 0 in 28.00 W/m2
16:20 61.3 °F 57.2 °F 29.7 in SW 10.1 mph 20 mph 86% 0 in 19.00 W/m2
16:25 61.2 °F 57 °F 29.7 in SW 12.1 mph 25 mph 86% 0 in 14.00 W/m2
16:30 61 °F 57 °F 29.7 in SSW 6.9 mph 16 mph 87% 0 in 14.00 W/m2
16:35 61 °F 57 °F 29.7 in SW 13 mph 13 mph 87% 0 in 16.00 W/m2
16:40 60.8 °F 56.8 °F 29.7 in SSW 11 mph 18 mph 87% 0 in 14.00 W/m2
16:45 60.8 °F 56.8 °F 29.7 in SW 6.9 mph 16 mph 87% 0 in 12.00 W/m2
16:50 61 °F 57 °F 29.7 in SSW 8.1 mph 26 mph 87% 0 in 18.00 W/m2
16:55 61 °F 56.8 °F 29.7 in WSW 13 mph 23 mph 86% 0 in 19.00 W/m2
17:00 61.2 °F 57 °F 29.7 in SSW 15 mph 24 mph 86% 0 in 14.00 W/m2
17:05 61.2 °F 56.7 °F 29.7 in SSW 10.1 mph 22 mph 85% 0 in 11.00 W/m2
17:10 61.3 °F 56.8 °F 29.7 in SW 10.1 mph 19 mph 85% 0 in 11.00 W/m2
17:15 61.3 °F 56.5 °F 29.7 in South 2.9 mph 18 mph 84% 0 in 9.00 W/m2
17:20 61.3 °F 56.5 °F 29.7 in SW 10.1 mph 19 mph 84% 0 in 9.00 W/m2
17:25 61.2 °F 56.3 °F 29.7 in WSW 15 mph 18 mph 84% 0 in 5.00 W/m2
17:30 61.3 °F 56.5 °F 29.7 in South 6.9 mph 17 mph 84% 0 in 0.00 W/m2
17:35 61.2 °F 56.3 °F 29.7 in South 17 mph 25 mph 84% 0 in 0.00 W/m2
17:40 61.2 °F 56.3 °F 29.7 in South 12.1 mph 20 mph 84% 0 in 0.00 W/m2
17:45 61.2 °F 56.3 °F 29.7 in SW 16.1 mph 29 mph 84% 0 in 0.00 W/m2
17:50 61 °F 56.5 °F 29.7 in SW 6.9 mph 14 mph 85% 0 in 0.00 W/m2
17:55 60.6 °F 56.1 °F 29.7 in South 6.9 mph 25 mph 85% 0 in 0.00 W/m2
18:00 60.4 °F 56.3 °F 29.7 in SW 15 mph 23 mph 86% 0 in 0.00 W/m2
18:05 60.1 °F 56.1 °F 29.7 in SSE 8.1 mph 11 mph 87% 0 in 0.00 W/m2
18:10 59.7 °F 56.1 °F 29.7 in SW 15 mph 21 mph 88% 0.01 in 0.00 W/m2
18:15 59.5 °F 55.9 °F 29.7 in SSW 4 mph 13 mph 88% 0.01 in 0.00 W/m2
18:20 59.5 °F 56.3 °F 29.7 in West 8.9 mph 22 mph 89% 0.01 in 0.00 W/m2
18:25 59.4 °F 56.1 °F 29.7 in SW 4.9 mph 22 mph 89% 0.01 in 0.00 W/m2
18:30 59.4 °F 56.1 °F 29.7 in SSW 11 mph 21 mph 89% 0.01 in 0.00 W/m2
18:35 59.4 °F 56.1 °F 29.7 in SSW 15 mph 22 mph 89% 0.01 in 0.00 W/m2
18:40 59.2 °F 55.9 °F 29.7 in WSW 21 mph 25 mph 89% 0.01 in 0.00 W/m2
18:45 59.2 °F 55.9 °F 29.7 in SW 17.9 mph 22 mph 89% 0.02 in 0.00 W/m2
18:50 59.2 °F 56.3 °F 29.7 in South 6 mph 22 mph 90% 0.02 in 0.00 W/m2
18:55 59.4 °F 56.5 °F 29.7 in SW 30 mph 30 mph 90% 0.02 in 0.00 W/m2
19:00 59.2 °F 56.3 °F 29.7 in South 13 mph 18 mph 90% 0.02 in 0.00 W/m2
19:05 59.2 °F 56.3 °F 29.7 in SSE 13 mph 28 mph 90% 0.02 in 0.00 W/m2
19:10 59.2 °F 56.3 °F 29.7 in SSW 17.9 mph 18 mph 90% 0.01 in 0.00 W/m2
19:15 59.4 °F 56.5 °F 29.7 in SW 19 mph 19 mph 90% 0.01 in 0.00 W/m2
19:20 59.5 °F 56.7 °F 29.7 in SW 21.9 mph 23 mph 90% 0.01 in 0.00 W/m2
19:25 59.7 °F 56.8 °F 29.7 in SSW 19 mph 29 mph 90% 0.01 in 0.00 W/m2
19:30 59.5 °F 56.7 °F 29.7 in SW 6.9 mph 15 mph 90% 0.01 in 0.00 W/m2
19:35 59.5 °F 56.7 °F 29.7 in SSW 11 mph 21 mph 90% 0.01 in 0.00 W/m2
19:40 59.5 °F 56.7 °F 29.7 in SSW 8.1 mph 21 mph 90% 0.01 in 0.00 W/m2
19:45 59.5 °F 56.7 °F 29.7 in South 13 mph 23 mph 90% 0 in 0.00 W/m2
19:50 59.5 °F 56.8 °F 29.7 in SSW 23 mph 24 mph 91% 0 in 0.00 W/m2
19:55 59.5 °F 56.8 °F 29.7 in SW 8.1 mph 25 mph 91% 0 in 0.00 W/m2
20:00 59.5 °F 56.8 °F 29.7 in SW 13 mph 22 mph 91% 0 in 0.00 W/m2
20:05 59.7 °F 57 °F 29.7 in South 6.9 mph 24 mph 91% 0 in 0.00 W/m2
20:10 59.7 °F 57 °F 29.7 in WSW 16.1 mph 19 mph 91% 0 in 0.00 W/m2
20:15 59.9 °F 57.2 °F 29.7 in WSW 10.1 mph 21 mph 91% 0 in 0.00 W/m2
20:20 59.7 °F 57 °F 29.7 in South 8.1 mph 18 mph 91% 0 in 0.00 W/m2
20:25 59.7 °F 57 °F 29.7 in SW 14.1 mph 21 mph 91% 0.01 in 0.00 W/m2
20:30 59.9 °F 57.2 °F 29.7 in SW 19 mph 27 mph 91% 0.01 in 0.00 W/m2
20:35 60.1 °F 57.4 °F 29.7 in SW 16.1 mph 17 mph 91% 0.01 in 0.00 W/m2
20:40 60.1 °F 57.4 °F 29.7 in SSW 6.9 mph 17 mph 91% 0.01 in 0.00 W/m2
20:45 60.1 °F 57.4 °F 29.7 in WSW 13 mph 29 mph 91% 0.01 in 0.00 W/m2
20:50 60.3 °F 57.4 °F 29.7 in SW 12.1 mph 17 mph 90% 0.01 in 0.00 W/m2
20:55 60.1 °F 57.2 °F 29.7 in SW 8.1 mph 13 mph 90% 0.01 in 0.00 W/m2
21:00 60.3 °F 57.4 °F 29.7 in SSW 11 mph 20 mph 90% 0.02 in 0.00 W/m2
21:05 60.3 °F 57.4 °F 29.7 in SW 21.9 mph 28 mph 90% 0.02 in 0.00 W/m2
21:10 60.3 °F 57.4 °F 29.7 in SW 17.9 mph 20 mph 90% 0.02 in 0.00 W/m2
21:15 60.4 °F 57.6 °F 29.7 in SW 14.1 mph 19 mph 90% 0.02 in 0.00 W/m2
21:20 60.4 °F 57.6 °F 29.7 in SW 10.1 mph 17 mph 90% 0.02 in 0.00 W/m2
21:25 60.4 °F 57.6 °F 29.7 in SSW 4.9 mph 13 mph 90% 0.01 in 0.00 W/m2
21:30 60.4 °F 57.6 °F 29.7 in SW 4 mph 17 mph 90% 0.01 in 0.00 W/m2
21:35 60.4 °F 57.6 °F 29.7 in SW 10.1 mph 32 mph 90% 0.01 in 0.00 W/m2
21:40 60.4 °F 57.6 °F 29.7 in SW 12.1 mph 29 mph 90% 0.01 in 0.00 W/m2
21:45 60.4 °F 57.6 °F 29.7 in SW 10.1 mph 20 mph 90% 0.01 in 0.00 W/m2
21:50 60.3 °F 57.4 °F 29.7 in WSW 13 mph 18 mph 90% 0.01 in 0.00 W/m2
21:55 60.3 °F 57.4 °F 29.7 in SW 12.1 mph 24 mph 90% 0.01 in 0.00 W/m2
22:00 60.3 °F 57.4 °F 29.7 in WSW 8.9 mph 17 mph 90% 0 in 0.00 W/m2
22:05 60.3 °F 57.4 °F 29.7 in WSW 15 mph 26 mph 90% 0 in 0.00 W/m2
22:10 60.3 °F 57.4 °F 29.7 in WSW 12.1 mph 20 mph 90% 0.01 in 0.00 W/m2
22:15 60.3 °F 57.4 °F 29.7 in SSW 15 mph 20 mph 90% 0.01 in 0.00 W/m2
22:20 60.4 °F 57.6 °F 29.7 in SW 17 mph 24 mph 90% 0.01 in 0.00 W/m2
22:25 60.4 °F 57.6 °F 29.7 in South 14.1 mph 22 mph 90% 0.01 in 0.00 W/m2
22:30 60.4 °F 57.6 °F 29.7 in SW 21 mph 22 mph 90% 0.01 in 0.00 W/m2
22:35 60.4 °F 57.6 °F 29.7 in SSW 6.9 mph 31 mph 90% 0.01 in 0.00 W/m2
22:40 60.4 °F 57.6 °F 29.7 in WNW 13 mph 18 mph 90% 0.01 in 0.00 W/m2
22:45 60.4 °F 57.6 °F 29.7 in WSW 13 mph 18 mph 90% 0.01 in 0.00 W/m2
22:50 60.3 °F 57.4 °F 29.7 in SSW 10.1 mph 25 mph 90% 0.02 in 0.00 W/m2
22:55 60.3 °F 57.4 °F 29.7 in WSW 6 mph 20 mph 90% 0.02 in 0.00 W/m2
23:00 60.3 °F 57.4 °F 29.7 in SSE 13 mph 13 mph 90% 0.02 in 0.00 W/m2
23:05 60.4 °F 57.6 °F 29.7 in SW 14.1 mph 23 mph 90% 0.01 in 0.00 W/m2
23:10 60.4 °F 57.6 °F 29.7 in SW 15 mph 21 mph 90% 0.01 in 0.00 W/m2
23:15 60.4 °F 57.6 °F 29.7 in SSW 11 mph 20 mph 90% 0.01 in 0.00 W/m2
23:20 60.4 °F 57.6 °F 29.7 in SW 6 mph 13 mph 90% 0.01 in 0.00 W/m2
23:25 60.3 °F 57.4 °F 29.7 in SSW 6 mph 18 mph 90% 0.01 in 0.00 W/m2
23:30 60.4 °F 57.6 °F 29.7 in SSW 11 mph 24 mph 90% 0.01 in 0.00 W/m2
23:35 60.3 °F 57.4 °F 29.7 in SSW 4.9 mph 14 mph 90% 0.01 in 0.00 W/m2
23:40 60.3 °F 57.4 °F 29.7 in SW 8.9 mph 18 mph 90% 0.01 in 0.00 W/m2
23:45 60.4 °F 57.6 °F 29.7 in SW 8.1 mph 20 mph 90% 0.01 in 0.00 W/m2
23:50 60.3 °F 57.4 °F 29.7 in SW 13 mph 13 mph 90% 0.01 in 0.00 W/m2
23:55 60.3 °F 57.6 °F 29.7 in SW 6.9 mph 19 mph 91% 0.01 in 0.00 W/m2